Time;durP1;ratioP1;P1;durP2;ratioP2;P2;SDS_P1;SDS_P2;PMS_P1;PMS_P2;Temp;Humidity;BMP_temperature;BMP_pressure;BME280_temperature;BME280_humidity;BME280_pressure;Samples;Min_cycle;Max_cycle;Signal;HPM_P1;HPM_P2
2022/03/30 00:02:09;;;;;;;13.25;8.23;;;;;;;13.57;40.76;98795.66;4477046;31;33801;-83
2022/03/30 00:04:38;;;;;;;16.15;8.30;;;;;;;13.65;40.54;98788.00;4479353;31;33703;-82
2022/03/30 00:07:06;;;;;;;17.30;9.05;;;;;;;13.53;40.78;98788.87;4478580;31;33290;-82
2022/03/30 00:09:34;;;;;;;17.23;8.55;;;;;;;13.41;41.01;98789.75;4490514;31;33349;-83
2022/03/30 00:12:02;;;;;;;14.07;8.50;;;;;;;13.34;40.82;98799.97;4492443;31;34020;-83
2022/03/30 00:14:29;;;;;;;14.90;8.55;;;;;;;13.32;40.64;98793.91;4491996;31;34272;-83
2022/03/30 00:16:57;;;;;;;20.83;8.45;;;;;;;13.32;40.85;98791.25;4479802;31;33434;-83
2022/03/30 00:19:25;;;;;;;12.68;8.75;;;;;;;13.42;40.82;98792.28;4480285;31;32986;-83
2022/03/30 00:21:52;;;;;;;16.90;8.35;;;;;;;13.45;40.56;98786.78;4494473;31;33953;-83
2022/03/30 00:24:20;;;;;;;14.05;7.90;;;;;;;13.28;40.70;98793.28;4479061;31;33804;-83
2022/03/30 00:26:48;;;;;;;13.40;7.10;;;;;;;13.36;40.59;98795.38;4477165;31;33008;-83
2022/03/30 00:29:16;;;;;;;18.27;9.07;;;;;;;13.29;41.01;98780.84;4478792;31;33766;-84
2022/03/30 00:31:43;;;;;;;14.18;7.87;;;;;;;13.72;39.97;98775.13;4475472;31;33577;-82
2022/03/30 00:34:11;;;;;;;16.30;9.13;;;;;;;13.43;39.91;98774.56;4490987;31;33629;-83
2022/03/30 00:36:39;;;;;;;14.70;8.52;;;;;;;13.50;38.59;98768.72;4479843;31;34742;-83
2022/03/30 00:39:06;;;;;;;14.35;8.38;;;;;;;13.98;37.39;98766.09;4477713;31;33479;-83
2022/03/30 00:41:35;;;;;;;12.63;8.23;;;;;;;14.09;37.69;98755.53;4490444;31;33607;-82
2022/03/30 00:44:10;;;;;;;11.40;7.43;;;;;;;13.87;37.93;98754.59;4462401;31;33093;-83
2022/03/30 00:46:43;;;;;;;13.10;7.85;;;;;;;14.21;36.95;98758.25;4480567;31;33581;-84
2022/03/30 00:49:12;;;;;;;14.48;8.32;;;;;;;14.34;36.58;98751.06;4492043;31;34154;-83
2022/03/30 00:51:40;;;;;;;14.32;8.98;;;;;;;13.99;37.38;98753.69;4465401;31;32725;-84
2022/03/30 00:54:07;;;;;;;17.15;8.30;;;;;;;14.22;37.31;98746.66;4480533;31;33717;-83
2022/03/30 00:56:36;;;;;;;17.60;8.65;;;;;;;14.26;36.79;98751.63;4465885;31;33200;-83
2022/03/30 00:59:05;;;;;;;13.13;8.18;;;;;;;14.29;36.63;98747.88;4480687;31;33068;-82
2022/03/30 01:01:34;;;;;;;14.30;8.20;;;;;;;14.33;36.73;98757.31;4491027;31;34336;-82
2022/03/30 01:04:04;;;;;;;15.50;7.97;;;;;;;14.08;37.68;98748.53;4480490;31;33619;-82
2022/03/30 01:06:32;;;;;;;14.93;7.72;;;;;;;13.88;37.68;98746.53;4463706;31;32390;-85
2022/03/30 01:09:00;;;;;;;15.20;9.05;;;;;;;13.75;38.03;98748.38;4491502;31;33799;-84
2022/03/30 01:11:28;;;;;;;17.08;8.35;;;;;;;13.83;37.87;98746.84;4479540;31;34301;-82
2022/03/30 01:13:55;;;;;;;14.98;9.13;;;;;;;14.17;37.07;98740.84;4491997;31;33697;-82
2022/03/30 01:16:32;;;;;;;14.80;8.05;;;;;;;13.96;37.83;98745.97;4489875;31;33490;-82
2022/03/30 01:19:07;;;;;;;15.20;8.15;;;;;;;13.71;38.26;98744.25;4474767;31;33416;-82
2022/03/30 01:21:37;;;;;;;14.65;8.68;;;;;;;13.70;38.25;98742.56;4477477;31;32993;-83
2022/03/30 01:24:06;;;;;;;11.57;7.37;;;;;;;13.88;37.55;98746.53;4477421;31;34273;-83
2022/03/30 01:26:34;;;;;;;14.48;8.32;;;;;;;14.24;37.20;98736.75;4478041;31;34225;-83
2022/03/30 01:32:25;;;;;;;15.05;7.75;;;;;;;14.05;37.58;98732.84;4477637;31;32530;-83
2022/03/30 01:34:39;;;;;;;12.25;7.22;;;;;;;13.82;38.51;98733.72;4491736;31;34122;-83
2022/03/30 01:37:08;;;;;;;14.45;8.25;;;;;;;13.82;38.64;98731.06;4487261;31;33414;-84
2022/03/30 01:39:36;;;;;;;16.95;8.88;;;;;;;13.56;38.78;98731.16;4491319;31;32794;-84
2022/03/30 01:42:04;;;;;;;11.45;6.87;;;;;;;13.58;38.58;98723.94;4476620;31;33898;-84
2022/03/30 01:44:32;;;;;;;19.37;7.65;;;;;;;13.64;38.24;98721.81;4490709;31;34159;-84
2022/03/30 01:47:00;;;;;;;15.25;7.78;;;;;;;13.77;38.27;98717.28;4490613;31;34120;-84
2022/03/30 01:49:28;;;;;;;15.50;8.15;;;;;;;13.99;37.82;98706.75;4475900;31;32384;-84
2022/03/30 01:51:58;;;;;;;10.82;7.55;;;;;;;13.84;38.65;98713.22;4464566;31;33126;-84
2022/03/30 01:54:27;;;;;;;12.23;7.93;;;;;;;13.79;38.71;98713.53;4464467;31;32515;-83
2022/03/30 01:56:56;;;;;;;15.48;7.90;;;;;;;13.77;38.55;98715.47;4477052;31;32814;-84
2022/03/30 01:59:23;;;;;;;12.25;7.78;;;;;;;13.98;38.60;98710.38;4490819;31;34188;-84
2022/03/30 02:01:52;;;;;;;13.15;7.80;;;;;;;13.81;38.95;98702.81;4477980;31;34533;-83
2022/03/30 02:04:19;;;;;;;9.80;6.57;;;;;;;13.72;39.07;98701.72;4476922;31;34038;-82
2022/03/30 02:06:48;;;;;;;20.02;8.05;;;;;;;13.65;39.02;98702.28;4479103;31;32681;-82
2022/03/30 02:09:15;;;;;;;9.80;7.15;;;;;;;13.31;40.00;98707.38;4463724;31;32319;-82
2022/03/30 02:11:43;;;;;;;11.88;7.05;;;;;;;13.49;39.54;98695.44;4489863;31;33779;-83
2022/03/30 02:14:10;;;;;;;14.65;8.10;;;;;;;13.57;39.52;98695.72;4478056;31;33455;-82
2022/03/30 02:16:38;;;;;;;14.85;7.95;;;;;;;13.54;39.50;98700.41;4477857;31;34070;-82
2022/03/30 02:19:06;;;;;;;15.70;8.20;;;;;;;13.46;40.02;98697.47;4490722;31;33912;-84
2022/03/30 02:21:34;;;;;;;12.80;7.15;;;;;;;13.37;39.96;98698.13;4489990;31;34343;-83
2022/03/30 02:24:02;;;;;;;12.23;8.23;;;;;;;13.36;40.19;98701.75;4470282;31;32849;-83
2022/03/30 02:26:30;;;;;;;15.73;7.10;;;;;;;13.29;40.33;98706.63;4478153;31;33523;-83
2022/03/30 02:28:57;;;;;;;10.68;6.68;;;;;;;13.21;40.91;98703.69;4466387;31;32723;-83
2022/03/30 02:31:26;;;;;;;13.27;6.85;;;;;;;13.05;41.11;98704.78;4479137;31;34061;-83
2022/03/30 02:33:54;;;;;;;14.27;7.12;;;;;;;12.88;41.49;98712.22;4491461;31;33299;-82
2022/03/30 02:36:21;;;;;;;12.07;6.50;;;;;;;12.74;41.80;98710.53;4477239;31;34266;-84
2022/03/30 02:38:50;;;;;;;10.25;6.78;;;;;;;13.40;40.58;98706.72;4492343;31;33272;-82
2022/03/30 02:41:18;;;;;;;9.30;6.95;;;;;;;13.53;40.24;98706.66;4489763;31;34742;-84
2022/03/30 02:43:45;;;;;;;14.43;7.20;;;;;;;13.57;40.22;98701.00;4476966;31;33084;-84
2022/03/30 02:46:13;;;;;;;8.10;5.75;;;;;;;13.24;40.98;98711.41;4479216;31;33092;-84
2022/03/30 02:48:41;;;;;;;11.93;6.75;;;;;;;13.02;41.87;98709.44;4466072;31;32685;-83
2022/03/30 02:51:09;;;;;;;11.00;6.32;;;;;;;13.00;42.05;98701.56;4491723;31;33666;-85
2022/03/30 02:53:36;;;;;;;10.38;6.57;;;;;;;13.02;42.11;98706.78;4475606;31;33228;-83
2022/03/30 02:56:05;;;;;;;11.32;6.47;;;;;;;13.24;40.92;98703.47;4490827;31;33516;-82
2022/03/30 02:58:33;;;;;;;8.25;6.28;;;;;;;13.00;41.59;98700.72;4491295;31;34203;-85
2022/03/30 03:01:01;;;;;;;9.07;6.03;;;;;;;12.82;42.20;98711.69;4479663;31;32924;-83
2022/03/30 03:03:29;;;;;;;9.18;6.25;;;;;;;12.89;42.08;98714.75;4477281;31;32937;-82
2022/03/30 03:05:57;;;;;;;15.52;6.80;;;;;;;12.95;42.36;98701.06;4476631;31;32766;-83
2022/03/30 03:08:24;;;;;;;12.37;6.40;;;;;;;13.00;42.16;98701.56;4479247;31;33069;-82
2022/03/30 03:10:52;;;;;;;13.45;5.95;;;;;;;13.00;42.39;98706.88;4491423;31;33619;-82
2022/03/30 03:13:20;;;;;;;10.27;6.87;;;;;;;13.00;42.69;98701.56;4493987;31;34668;-82
2022/03/30 03:15:48;;;;;;;14.15;6.55;;;;;;;12.85;42.34;98707.97;4479248;31;33568;-84
2022/03/30 03:18:19;;;;;;;13.15;6.78;;;;;;;12.60;43.15;98721.25;4480650;31;33449;-82
2022/03/30 03:20:48;;;;;;;11.82;6.93;;;;;;;12.71;42.96;98723.97;4490440;31;33481;-84
2022/03/30 03:23:16;;;;;;;13.00;6.80;;;;;;;12.89;43.22;98712.09;4478810;31;33811;-82
2022/03/30 03:25:44;;;;;;;11.60;6.85;;;;;;;12.65;43.67;98711.19;4466176;31;32248;-82
2022/03/30 03:28:13;;;;;;;15.73;6.37;;;;;;;12.66;43.46;98718.16;4489723;31;33837;-82
2022/03/30 03:30:41;;;;;;;12.63;6.55;;;;;;;12.50;43.82;98715.72;4480022;31;34217;-83
2022/03/30 03:33:10;;;;;;;8.68;5.80;;;;;;;12.18;44.34;98716.12;4491362;31;33382;-84
2022/03/30 03:35:38;;;;;;;9.30;5.93;;;;;;;12.47;43.90;98714.13;4477222;32;32677;-82
2022/03/30 03:38:08;;;;;;;15.75;6.85;;;;;;;12.44;44.19;98714.34;4469296;31;32655;-84
2022/03/30 03:40:36;;;;;;;11.20;7.12;;;;;;;12.29;44.58;98707.44;4480418;31;33008;-84
2022/03/30 03:43:04;;;;;;;13.52;7.82;;;;;;;12.71;44.11;98702.78;4469684;31;33369;-84
2022/03/30 03:45:33;;;;;;;11.90;6.07;;;;;;;12.31;44.69;98708.19;4484435;31;33349;-84
2022/03/30 03:48:01;;;;;;;16.20;7.37;;;;;;;12.22;45.16;98704.38;4477183;31;33882;-83
2022/03/30 03:50:29;;;;;;;12.43;6.82;;;;;;;12.01;45.49;98711.09;4476415;31;34190;-84
2022/03/30 03:52:56;;;;;;;9.07;6.68;;;;;;;12.13;45.23;98705.00;4464977;31;33159;-84
2022/03/30 03:55:24;;;;;;;14.50;6.20;;;;;;;11.92;45.53;98707.28;4478745;31;33653;-83
2022/03/30 03:57:51;;;;;;;12.50;6.68;;;;;;;12.00;45.04;98707.59;4493373;31;33362;-84
2022/03/30 04:00:19;;;;;;;16.33;6.85;;;;;;;12.05;44.58;98707.31;4491927;31;33407;-83
2022/03/30 04:02:47;;;;;;;16.80;6.78;;;;;;;12.14;44.74;98700.53;4493978;31;33918;-84
2022/03/30 04:05:15;;;;;;;11.48;6.50;;;;;;;12.02;45.00;98707.53;4468502;31;33551;-84
2022/03/30 04:07:42;;;;;;;19.42;6.68;;;;;;;11.89;45.37;98704.84;4489959;31;33490;-84
2022/03/30 04:10:10;;;;;;;15.02;7.28;;;;;;;11.76;45.05;98706.56;4476718;31;33667;-83
2022/03/30 04:12:39;;;;;;;11.90;8.00;;;;;;;11.73;44.68;98696.22;4477615;31;33842;-86
2022/03/30 04:15:08;;;;;;;11.60;6.50;;;;;;;11.87;44.31;98693.53;4491972;31;33777;-84
2022/03/30 04:17:47;;;;;;;12.00;5.75;;;;;;;11.84;44.47;98696.38;4488443;31;33123;-85
2022/03/30 04:20:15;;;;;;;10.07;6.32;;;;;;;11.65;44.80;98701.16;4476947;31;34593;-84
2022/03/30 04:22:43;;;;;;;18.10;7.22;;;;;;;11.82;44.25;98693.00;4482836;31;34080;-82
2022/03/30 04:25:11;;;;;;;11.40;6.75;;;;;;;11.76;44.35;98698.63;4471025;32;33374;-83
2022/03/30 04:27:47;;;;;;;15.15;6.82;;;;;;;11.83;44.33;98701.78;4490385;31;33271;-83
2022/03/30 04:30:17;;;;;;;16.55;8.02;;;;;;;11.74;44.53;98698.75;4478762;31;34031;-84
2022/03/30 04:32:45;;;;;;;13.52;6.65;;;;;;;11.65;45.19;98703.78;4476727;31;33015;-84
2022/03/30 04:35:14;;;;;;;13.15;6.32;;;;;;;11.74;45.08;98713.75;4488748;31;33572;-84
2022/03/30 04:37:41;;;;;;;9.48;6.75;;;;;;;11.65;45.21;98706.44;4489195;31;33411;-85
2022/03/30 04:40:10;;;;;;;11.88;6.87;;;;;;;11.18;45.54;98710.34;4491313;31;33114;-85
2022/03/30 04:42:37;;;;;;;13.65;7.62;;;;;;;11.42;45.00;98703.47;4478465;31;33741;-85
2022/03/30 04:45:06;;;;;;;9.88;6.00;;;;;;;11.40;45.06;98702.75;4467834;31;33253;-84
2022/03/30 04:47:33;;;;;;;14.52;7.50;;;;;;;11.71;44.61;98708.66;4474782;31;33639;-84
2022/03/30 04:50:01;;;;;;;23.50;7.68;;;;;;;11.92;44.61;98717.88;4474935;31;33712;-84
2022/03/30 04:52:31;;;;;;;29.08;8.18;;;;;;;11.80;44.77;98710.72;4480980;31;32450;-84
2022/03/30 04:54:59;;;;;;;15.38;7.70;;;;;;;11.40;45.79;98708.03;4480159;31;32517;-84
2022/03/30 04:57:27;;;;;;;16.75;7.55;;;;;;;11.28;45.99;98706.16;4479990;31;32331;-85
2022/03/30 04:59:55;;;;;;;16.65;7.22;;;;;;;11.36;45.81;98714.47;4471133;31;33007;-83
2022/03/30 05:02:22;;;;;;;12.10;6.68;;;;;;;11.35;45.74;98719.84;4490171;31;33102;-84
2022/03/30 05:04:50;;;;;;;16.62;8.57;;;;;;;11.52;45.59;98725.72;4494058;31;33945;-85
2022/03/30 05:07:18;;;;;;;16.15;7.53;;;;;;;11.59;45.31;98728.00;4479654;31;33426;-85
2022/03/30 05:09:46;;;;;;;21.52;8.32;;;;;;;11.31;46.45;98721.00;4477965;32;33352;-85
2022/03/30 05:12:14;;;;;;;15.70;8.50;;;;;;;11.40;46.34;98733.63;4488927;31;34256;-85
2022/03/30 05:14:41;;;;;;;15.50;7.95;;;;;;;10.88;47.65;98739.53;4476407;31;34028;-85
2022/03/30 05:17:10;;;;;;;18.45;8.18;;;;;;;11.09;47.77;98742.63;4494710;31;34019;-85
2022/03/30 05:19:37;;;;;;;12.52;7.45;;;;;;;11.35;46.98;98735.72;4477593;31;33194;-85
2022/03/30 05:22:05;;;;;;;20.73;7.53;;;;;;;11.46;46.80;98744.63;4492059;31;33335;-84
2022/03/30 05:24:33;;;;;;;16.87;7.82;;;;;;;11.53;46.75;98735.34;4464794;31;34141;-86
2022/03/30 05:27:01;;;;;;;13.70;7.28;;;;;;;11.80;46.36;98739.78;4494794;31;33008;-84
2022/03/30 05:29:28;;;;;;;15.25;8.23;;;;;;;11.71;46.78;98743.03;4485055;31;33861;-81
2022/03/30 05:31:56;;;;;;;17.30;8.15;;;;;;;11.72;47.02;98745.56;4487622;31;33632;-81
2022/03/30 05:34:41;;;;;;;14.98;7.57;;;;;;;11.87;46.91;98743.78;4490214;31;32642;-81
2022/03/30 05:37:09;;;;;;;10.55;7.28;;;;;;;11.93;46.79;98753.09;4474696;31;34195;-81
2022/03/30 05:39:41;;;;;;;19.40;7.97;;;;;;;11.95;46.97;98741.47;4468856;31;33132;-80
2022/03/30 05:42:11;;;;;;;18.52;8.52;;;;;;;11.94;47.05;98747.72;4482373;31;31669;-80
2022/03/30 05:44:39;;;;;;;12.90;7.93;;;;;;;12.10;46.69;98741.38;4478516;31;33186;-80
2022/03/30 05:47:07;;;;;;;13.70;8.05;;;;;;;12.21;46.74;98739.75;4472079;31;33303;-80
2022/03/30 05:49:36;;;;;;;11.73;7.50;;;;;;;12.20;46.57;98742.47;4476109;31;33033;-80
2022/03/30 05:52:05;;;;;;;14.07;8.68;;;;;;;12.32;46.35;98736.34;4474515;32;32623;-80
2022/03/30 05:54:34;;;;;;;11.48;7.85;;;;;;;12.67;45.26;98733.09;4482428;31;33635;-81
2022/03/30 05:57:05;;;;;;;15.80;8.20;;;;;;;12.39;45.12;98732.34;4484814;31;32727;-81
2022/03/30 05:59:38;;;;;;;14.43;8.88;;;;;;;12.57;44.90;98736.37;4489396;31;33671;-81
2022/03/30 06:02:08;;;;;;;15.45;8.20;;;;;;;12.73;44.41;98732.69;4477786;32;33074;-81
2022/03/30 06:04:38;;;;;;;11.85;6.80;;;;;;;13.04;44.04;98741.97;4490008;31;33769;-81
2022/03/30 06:07:06;;;;;;;21.70;9.80;;;;;;;13.27;44.02;98738.56;4477045;32;33062;-80
2022/03/30 06:09:33;;;;;;;18.52;7.47;;;;;;;13.31;43.85;98737.38;4488178;31;34030;-81
2022/03/30 06:12:14;;;;;;;17.05;7.72;;;;;;;12.77;43.92;98739.44;4463689;32;33115;-81
2022/03/30 06:14:42;;;;;;;14.27;7.65;;;;;;;13.00;43.71;98733.38;4474903;31;32384;-81
2022/03/30 06:17:10;;;;;;;10.25;7.60;;;;;;;13.22;44.01;98729.25;4479653;32;33518;-81
2022/03/30 06:19:39;;;;;;;14.85;8.50;;;;;;;13.62;42.63;98734.31;4495120;31;34618;-81
2022/03/30 06:22:10;;;;;;;17.10;7.75;;;;;;;13.62;43.27;98726.34;4479254;31;32616;-79
2022/03/30 06:24:39;;;;;;;12.50;6.90;;;;;;;13.75;43.04;98727.16;4490918;31;34088;-81
2022/03/30 06:27:09;;;;;;;11.80;7.93;;;;;;;14.06;42.83;98734.53;4491509;31;33216;-82
2022/03/30 06:29:39;;;;;;;12.40;6.57;;;;;;;13.69;42.10;98735.56;4480620;31;33294;-79
2022/03/30 06:32:08;;;;;;;11.45;7.30;;;;;;;13.78;42.13;98735.75;4479700;31;33042;-79
2022/03/30 06:34:37;;;;;;;12.45;6.35;;;;;;;14.13;41.83;98736.72;4481595;31;33802;-81
2022/03/30 06:37:05;;;;;;;12.68;7.45;;;;;;;14.16;41.41;98733.84;4475999;31;32054;-79
2022/03/30 06:39:34;;;;;;;12.30;6.87;;;;;;;14.23;41.25;98740.38;4493442;31;33149;-79
2022/03/30 06:42:09;;;;;;;24.35;8.32;;;;;;;14.41;40.59;98738.13;4476931;31;34018;-79
2022/03/30 06:44:37;;;;;;;12.95;7.90;;;;;;;14.93;40.28;98745.63;4476699;31;34491;-79
2022/03/30 06:47:05;;;;;;;15.88;7.80;;;;;;;15.16;39.84;98740.31;4465780;32;32280;-81
2022/03/30 06:49:33;;;;;;;19.92;8.27;;;;;;;15.17;40.95;98736.66;4450533;32;34032;-81
2022/03/30 06:52:00;;;;;;;15.75;8.52;;;;;;;15.03;39.67;98741.25;4470492;32;34093;-81
2022/03/30 06:54:28;;;;;;;19.25;8.70;;;;;;;15.16;39.30;98733.16;4458539;32;33136;-81
2022/03/30 06:56:56;;;;;;;16.75;8.13;;;;;;;15.13;39.67;98735.22;4471790;32;33470;-81
2022/03/30 06:59:23;;;;;;;16.65;8.60;;;;;;;15.18;39.42;98738.34;4450662;32;33655;-81
2022/03/30 07:01:51;;;;;;;18.60;9.35;;;;;;;15.28;38.60;98729.50;4468656;32;33550;-82
2022/03/30 07:04:19;;;;;;;17.58;9.07;;;;;;;15.90;38.54;98730.72;4447852;32;33560;-81
2022/03/30 07:12:19;;;;;;;16.60;9.73;;;;;;;16.20;37.58;98731.84;4469199;32;33622;-81
2022/03/30 07:14:47;;;;;;;17.40;9.23;;;;;;;15.92;38.41;98738.63;4455977;32;33687;-81
2022/03/30 07:17:14;;;;;;;17.73;8.35;;;;;;;16.27;37.33;98735.66;4457776;32;34384;-81
2022/03/30 07:19:43;;;;;;;17.08;9.05;;;;;;;16.21;37.08;98738.84;4456597;32;33981;-82
2022/03/30 07:22:13;;;;;;;14.95;8.40;;;;;;;16.54;36.50;98728.00;4444782;32;32775;-81
2022/03/30 07:24:41;;;;;;;17.87;9.90;;;;;;;16.86;37.37;98735.94;4482947;32;34160;-81
2022/03/30 07:27:09;;;;;;;17.67;9.63;;;;;;;16.51;37.05;98733.59;4455454;32;32566;-81
2022/03/30 07:29:37;;;;;;;18.05;9.90;;;;;;;16.85;36.33;98728.06;4458330;32;32707;-81
2022/03/30 07:32:05;;;;;;;22.27;10.43;;;;;;;16.97;34.70;98726.16;4470690;32;33507;-81
2022/03/30 07:34:33;;;;;;;19.52;9.52;;;;;;;16.97;35.20;98731.50;4471208;32;33135;-81
2022/03/30 07:37:00;;;;;;;19.48;10.07;;;;;;;17.11;34.35;98713.31;4457008;32;33901;-81
2022/03/30 07:39:28;;;;;;;18.67;10.43;;;;;;;17.13;33.89;98714.00;4457911;32;33412;-82
2022/03/30 07:41:56;;;;;;;17.02;9.88;;;;;;;17.13;33.57;98714.00;4454606;32;32560;-82
2022/03/30 07:44:23;;;;;;;16.25;10.27;;;;;;;17.11;34.24;98713.31;4458590;32;34750;-82
2022/03/30 07:46:51;;;;;;;21.55;11.23;;;;;;;17.19;33.94;98709.12;4457342;32;32795;-82
2022/03/30 07:49:19;;;;;;;18.48;10.63;;;;;;;16.59;34.80;98720.47;4471172;32;33948;-82
2022/03/30 07:51:47;;;;;;;20.00;11.50;;;;;;;16.94;33.99;98716.59;4453561;32;32709;-82
2022/03/30 07:54:15;;;;;;;18.33;11.45;;;;;;;17.55;33.09;98707.66;4452932;32;33792;-82
2022/03/30 07:56:42;;;;;;;28.70;10.82;;;;;;;17.59;33.83;98712.59;4457791;32;32746;-82
2022/03/30 07:59:10;;;;;;;25.75;11.23;;;;;;;17.60;34.21;98719.59;4455635;32;33467;-82
2022/03/30 08:01:37;;;;;;;20.83;10.95;;;;;;;17.53;33.95;98722.97;4469620;32;33691;-82
2022/03/30 08:04:05;;;;;;;21.12;11.80;;;;;;;17.80;33.50;98722.34;4465900;32;33433;-81
2022/03/30 08:06:34;;;;;;;29.95;12.25;;;;;;;17.71;32.26;98728.47;4455053;32;33155;-81
2022/03/30 08:09:03;;;;;;;17.35;11.20;;;;;;;18.37;31.75;98720.63;4457090;32;33121;-82
2022/03/30 08:11:31;;;;;;;20.23;11.15;;;;;;;18.30;32.51;98723.06;4470760;32;34365;-81
2022/03/30 08:13:59;;;;;;;23.52;10.80;;;;;;;18.52;30.51;98716.56;4466886;32;33913;-81
2022/03/30 08:16:27;;;;;;;21.17;11.07;;;;;;;18.45;31.75;98727.97;4457652;32;32722;-81
2022/03/30 08:18:56;;;;;;;21.55;11.38;;;;;;;18.59;30.86;98725.69;4470589;32;34244;-84
2022/03/30 08:24:22;;;;;;;18.20;10.80;;;;;;;18.31;31.72;98729.22;4473560;32;33722;-81
2022/03/30 08:26:50;;;;;;;19.12;10.95;;;;;;;18.80;30.91;98727.34;4470654;32;33796;-81
2022/03/30 08:29:17;;;;;;;23.02;12.23;;;;;;;18.81;30.15;98726.38;4458295;32;33545;-80
2022/03/30 08:31:52;;;;;;;19.45;10.80;;;;;;;18.37;33.15;98731.34;4472061;32;33554;-81
2022/03/30 08:34:20;;;;;;;19.27;11.20;;;;;;;18.79;30.50;98731.84;4445595;32;33046;-81
2022/03/30 08:36:47;;;;;;;23.95;11.85;;;;;;;18.54;32.33;98725.28;4471062;32;33178;-81
2022/03/30 08:39:15;;;;;;;19.90;10.95;;;;;;;19.09;30.29;98721.91;4471360;32;33845;-81
2022/03/30 08:41:45;;;;;;;24.25;11.60;;;;;;;18.68;30.54;98727.53;4471565;32;33945;-81
2022/03/30 08:44:17;;;;;;;19.05;10.73;;;;;;;18.91;33.19;98733.38;4456306;32;34613;-81
2022/03/30 08:46:45;;;;;;;21.45;11.18;;;;;;;18.83;33.48;98737.75;4458690;32;32639;-81
2022/03/30 08:49:14;;;;;;;19.10;10.40;;;;;;;18.06;35.24;98739.50;4457856;32;33193;-81
2022/03/30 08:51:53;;;;;;;22.92;11.23;;;;;;;18.10;35.40;98740.09;4457892;32;33486;-81
2022/03/30 08:54:21;;;;;;;21.30;11.07;;;;;;;18.24;36.00;98744.16;4470971;32;34445;-80
2022/03/30 08:56:52;;;;;;;21.73;11.48;;;;;;;18.39;35.30;98748.09;4458598;32;32951;-81
2022/03/30 08:59:21;;;;;;;20.12;11.65;;;;;;;18.52;35.20;98745.13;4451739;32;33815;-81
2022/03/30 09:01:52;;;;;;;18.73;11.00;;;;;;;18.32;35.40;98745.13;4470855;32;33548;-81
2022/03/30 09:04:21;;;;;;;17.55;10.38;;;;;;;17.76;37.35;98739.62;4458164;32;34488;-81
2022/03/30 09:06:52;;;;;;;20.27;10.73;;;;;;;18.32;36.07;98739.78;4451578;32;32782;-81
2022/03/30 09:09:31;;;;;;;20.92;11.20;;;;;;;18.36;35.02;98732.31;4456542;32;34558;-81
2022/03/30 09:12:00;;;;;;;17.85;10.20;;;;;;;17.93;36.52;98733.59;4454122;32;33682;-81
2022/03/30 09:14:31;;;;;;;16.80;10.10;;;;;;;18.12;36.21;98738.94;4457285;32;33472;-81
2022/03/30 09:17:02;;;;;;;19.58;11.23;;;;;;;18.31;36.56;98734.59;4467627;32;32233;-81
2022/03/30 09:19:36;;;;;;;22.83;11.80;;;;;;;18.38;35.59;98736.56;4457342;32;32690;-82
2022/03/30 09:22:05;;;;;;;23.42;10.23;;;;;;;18.32;35.54;98730.91;4470938;32;33364;-82
2022/03/30 09:24:35;;;;;;;23.90;11.05;;;;;;;18.68;36.58;98730.19;4451313;32;33197;-81
2022/03/30 09:27:04;;;;;;;16.10;10.48;;;;;;;18.76;34.41;98723.28;4452450;32;32575;-82
2022/03/30 09:29:36;;;;;;;20.62;10.82;;;;;;;18.98;35.00;98728.28;4444366;32;33777;-81
2022/03/30 09:32:22;;;;;;;18.62;10.07;;;;;;;18.39;35.80;98729.38;4472917;32;33659;-81
2022/03/30 09:34:52;;;;;;;18.40;9.18;;;;;;;18.12;36.75;98730.94;4469587;32;33912;-82
2022/03/30 09:37:20;;;;;;;27.67;10.27;;;;;;;17.89;36.74;98734.84;4458845;32;32263;-81
2022/03/30 09:39:49;;;;;;;22.52;10.23;;;;;;;18.20;37.20;98732.06;4463659;32;33424;-82
2022/03/30 09:42:18;;;;;;;23.75;10.63;;;;;;;17.88;36.98;98725.16;4467845;32;34047;-81
2022/03/30 09:44:54;;;;;;;15.30;10.48;;;;;;;18.09;37.18;98728.56;4437443;32;32432;-82
2022/03/30 09:47:23;;;;;;;24.87;11.27;;;;;;;18.49;36.18;98721.34;4467267;32;33256;-81
2022/03/30 09:49:53;;;;;;;18.87;10.55;;;;;;;17.86;37.43;98729.81;4470036;32;33578;-82
2022/03/30 09:52:23;;;;;;;17.58;10.02;;;;;;;17.89;36.44;98721.50;4454274;32;33698;-81
2022/03/30 09:54:53;;;;;;;16.50;9.15;;;;;;;17.95;37.04;98712.94;4456268;32;34996;-81
2022/03/30 09:57:27;;;;;;;16.02;10.48;;;;;;;18.50;36.75;98709.66;4457582;32;33008;-82
2022/03/30 10:00:12;;;;;;;17.50;10.32;;;;;;;17.87;37.08;98710.97;4457473;32;34315;-81
2022/03/30 10:02:41;;;;;;;21.85;11.07;;;;;;;18.17;36.81;98701.12;4468901;32;33869;-81
2022/03/30 10:05:20;;;;;;;15.52;9.90;;;;;;;17.85;37.19;98698.72;4455424;32;33142;-81
2022/03/30 10:07:48;;;;;;;14.63;8.70;;;;;;;18.01;37.21;98707.03;4470019;32;34172;-82
2022/03/30 10:10:17;;;;;;;15.20;9.65;;;;;;;18.19;36.84;98698.31;4469814;32;32449;-81
2022/03/30 10:12:45;;;;;;;17.15;9.75;;;;;;;18.07;37.34;98701.12;4443200;32;33192;-81
2022/03/30 10:15:13;;;;;;;20.42;10.88;;;;;;;17.97;36.96;98694.09;4470006;32;33879;-81
2022/03/30 10:17:41;;;;;;;20.02;10.70;;;;;;;17.65;37.67;98698.69;4456517;32;33459;-81
2022/03/30 10:20:10;;;;;;;15.35;10.07;;;;;;;17.62;37.21;98696.31;4469500;32;34258;-82
2022/03/30 10:22:57;;;;;;;17.80;9.60;;;;;;;17.81;37.20;98694.69;4456210;32;34261;-81
2022/03/30 10:25:41;;;;;;;22.85;10.20;;;;;;;17.66;37.58;98692.38;4469500;32;33758;-81
2022/03/30 10:28:24;;;;;;;14.80;9.48;;;;;;;17.54;38.44;98695.31;4465399;32;33293;-81
2022/03/30 10:30:54;;;;;;;13.85;8.82;;;;;;;17.84;37.97;98694.38;4453753;32;32498;-81
2022/03/30 10:33:36;;;;;;;17.67;9.75;;;;;;;18.05;37.33;98681.75;4455456;32;33213;-81
2022/03/30 10:36:29;;;;;;;10.27;8.38;;;;;;;18.08;38.04;98681.44;4469727;32;33881;-82
2022/03/30 10:39:15;;;;;;;16.27;8.93;;;;;;;17.95;38.45;98680.91;4455623;32;33792;-82
2022/03/30 10:42:11;;;;;;;11.25;9.00;;;;;;;18.27;37.94;98674.37;4468313;32;34139;-82
2022/03/30 10:44:45;;;;;;;15.45;8.50;;;;;;;18.50;36.28;98665.06;4455381;32;34483;-81
2022/03/30 10:47:20;;;;;;;15.57;8.80;;;;;;;18.63;35.68;98665.59;4452487;31;34242;-81
2022/03/30 10:49:50;;;;;;;19.90;8.95;;;;;;;18.53;35.28;98663.94;4484943;31;34213;-81
2022/03/30 10:52:42;;;;;;;19.15;8.25;;;;;;;18.53;36.09;98666.63;4477888;32;33974;-81
2022/03/30 10:55:12;;;;;;;12.32;7.62;;;;;;;18.43;35.83;98658.63;4475491;31;34190;-82
2022/03/30 10:57:44;;;;;;;12.63;7.97;;;;;;;18.57;35.54;98647.47;4477473;31;33170;-81
2022/03/30 11:00:20;;;;;;;17.02;9.07;;;;;;;18.74;34.94;98650.38;4476539;31;32370;-81
2022/03/30 11:02:48;;;;;;;14.70;8.73;;;;;;;18.34;36.46;98651.47;4469202;31;33335;-81
2022/03/30 11:05:28;;;;;;;17.48;8.38;;;;;;;18.30;37.29;98652.72;4461722;31;33218;-81
2022/03/30 11:07:56;;;;;;;16.02;10.00;;;;;;;17.91;37.68;98647.44;4482044;31;32232;-81
2022/03/30 11:10:33;;;;;;;13.30;8.70;;;;;;;18.18;36.78;98644.03;4467043;31;33139;-81
2022/03/30 11:13:06;;;;;;;13.27;8.43;;;;;;;18.24;37.17;98647.97;4462468;31;33280;-81
2022/03/30 11:15:59;;;;;;;14.77;8.35;;;;;;;17.93;37.76;98645.47;4466961;31;33473;-81
2022/03/30 11:18:28;;;;;;;14.13;7.93;;;;;;;18.53;36.52;98632.69;4479090;31;32411;-81
2022/03/30 11:21:08;;;;;;;16.45;9.25;;;;;;;19.10;35.82;98624.59;4479966;31;32698;-82
2022/03/30 11:23:36;;;;;;;20.83;9.32;;;;;;;18.85;36.63;98626.97;4480056;31;33818;-82
2022/03/30 11:26:04;;;;;;;16.02;8.82;;;;;;;18.39;36.31;98630.50;4476773;31;34488;-81
2022/03/30 11:28:40;;;;;;;13.02;8.50;;;;;;;18.68;35.89;98625.91;4479414;31;34486;-82
2022/03/30 11:31:23;;;;;;;16.27;8.93;;;;;;;18.65;37.36;98620.81;4464163;31;32146;-81
2022/03/30 11:34:34;;;;;;;17.80;8.48;;;;;;;18.53;35.90;98623.84;4477288;31;33775;-82
2022/03/30 11:37:03;;;;;;;15.90;7.62;;;;;;;18.97;36.27;98608.88;4456870;31;33355;-81
2022/03/30 11:39:33;;;;;;;11.68;8.00;;;;;;;19.18;35.33;98612.16;4469373;31;32933;-82
2022/03/30 11:42:01;;;;;;;10.90;8.02;;;;;;;18.97;35.27;98603.53;4477311;31;33842;-81
2022/03/30 11:47:19;;;;;;;17.40;8.25;;;;;;;18.79;35.18;98606.16;4486933;31;34129;-81
2022/03/30 11:49:54;;;;;;;12.65;7.60;;;;;;;18.57;35.17;98596.66;4478126;31;33652;-81
2022/03/30 11:52:24;;;;;;;14.38;9.32;;;;;;;18.53;35.39;98595.28;4473403;32;32353;-81